createdAt,value
2022-09-17T00:00:31.291Z,99281.45
2022-09-17T00:05:31.098Z,99282.31
2022-09-17T00:06:46.856Z,99275.87
2022-09-17T00:10:31.368Z,99275.87
2022-09-17T00:15:31.138Z,99274.55
2022-09-17T00:20:20.833Z,99278.78
2022-09-17T00:20:30.628Z,99278.78
2022-09-17T00:25:30.573Z,99277.75
2022-09-17T00:26:59.332Z,99278.58
2022-09-17T00:30:30.682Z,99278.58
2022-09-17T00:35:30.482Z,99277.09
2022-09-17T00:40:30.746Z,99279.44
2022-09-17T00:45:31.408Z,99286.83
2022-09-17T00:45:39.784Z,99286.83
2022-09-17T00:48:18.536Z,99289.97
2022-09-17T00:50:34.175Z,99289.97
2022-09-17T00:55:35.463Z,99293.42
2022-09-17T00:58:07.036Z,99294.92
2022-09-17T01:00:09.036Z,99294.92
2022-09-17T01:00:31.548Z,99294.92
2022-09-17T01:05:40.257Z,99300.76000000001
2022-09-17T01:06:27.735Z,99298.6
2022-09-17T01:10:41.725Z,99298.6
2022-09-17T01:14:31.979Z,99293.87000000001
2022-09-17T01:15:39.084Z,99293.87000000001
2022-09-17T01:20:47.415Z,99296.09
2022-09-17T01:21:49.790Z,99295.01000000001
2022-09-17T01:25:41.506Z,99295.01000000001
2022-09-17T01:30:13.834Z,99289.75
2022-09-17T01:30:37.745Z,99289.75
2022-09-17T01:35:34.933Z,99291.66
2022-09-17T01:39:31.184Z,99290.73
2022-09-17T01:40:39.254Z,99290.73
2022-09-17T01:41:42.336Z,99294.41
2022-09-17T01:45:37.450Z,99294.41
2022-09-17T01:50:37.017Z,99296.22
2022-09-17T01:55:34.801Z,99299.19
2022-09-17T02:00:30.877Z,99306.58
2022-09-17T02:03:16.403Z,99298.43
2022-09-17T02:05:40.443Z,99298.43
2022-09-17T02:09:37.408Z,99296.55
2022-09-17T02:10:34.296Z,99296.55
2022-09-17T02:15:36.157Z,99291.88
2022-09-17T02:20:38.151Z,99296.0
2022-09-17T02:25:35.598Z,99291.69
2022-09-17T02:26:55.137Z,99290.81
2022-09-17T02:29:32.427Z,99290.81
2022-09-17T02:30:31.179Z,99290.81
2022-09-17T02:35:31.074Z,99292.35
2022-09-17T02:40:36.351Z,99285.85
2022-09-17T02:41:11.185Z,99288.62000000001
2022-09-17T02:44:42.774Z,99288.62000000001
2022-09-17T02:45:45.237Z,99288.62000000001
2022-09-17T02:49:44.691Z,99289.06
2022-09-17T02:50:47.719Z,99289.06
2022-09-17T02:51:23.330Z,99290.98
2022-09-17T02:55:36.359Z,99290.98
2022-09-17T03:00:10.383Z,99291.24
2022-09-17T03:00:30.855Z,99291.24
2022-09-17T03:05:31.898Z,99286.28
2022-09-17T03:10:32.700Z,99285.33
2022-09-17T03:12:25.819Z,99290.97
2022-09-17T03:15:30.547Z,99290.97
2022-09-17T03:17:26.264Z,99289.69
2022-09-17T03:20:30.459Z,99289.69
2022-09-17T03:21:06.055Z,99289.42
2022-09-17T03:24:16.391Z,99289.42
2022-09-17T03:25:30.733Z,99289.42
2022-09-17T03:30:30.561Z,99288.9
2022-09-17T03:35:30.379Z,99289.78
2022-09-17T03:40:30.471Z,99292.52
2022-09-17T03:45:19.010Z,99285.75
2022-09-17T03:45:30.423Z,99285.75
2022-09-17T03:48:00.966Z,99292.6
2022-09-17T03:50:30.560Z,99292.6
2022-09-17T03:51:11.236Z,99285.89
2022-09-17T03:54:38.850Z,99285.89
2022-09-17T03:55:30.384Z,99285.89
2022-09-17T04:00:30.908Z,99282.73000000001
2022-09-17T04:05:30.791Z,99292.64
2022-09-17T04:07:50.132Z,99283.23000000001
2022-09-17T04:10:30.412Z,99283.23000000001
2022-09-17T04:12:13.705Z,99285.36
2022-09-17T04:15:30.364Z,99285.36
2022-09-17T04:19:57.276Z,99277.81
2022-09-17T04:20:30.391Z,99277.81
2022-09-17T04:22:04.863Z,99282.75
2022-09-17T04:25:30.435Z,99282.75
2022-09-17T04:30:30.987Z,99289.93000000001
2022-09-17T04:32:01.407Z,99286.22
2022-09-17T04:35:30.507Z,99286.22
2022-09-17T04:40:30.819Z,99294.9
2022-09-17T04:45:32.371Z,99294.28
2022-09-17T04:48:44.874Z,99291.74
2022-09-17T04:50:30.967Z,99291.74
2022-09-17T04:55:30.337Z,99289.67
2022-09-17T05:00:30.555Z,99287.34
2022-09-17T05:03:46.141Z,99288.0
2022-09-17T05:05:30.335Z,99288.0
2022-09-17T05:06:10.480Z,99291.75
2022-09-17T05:10:30.388Z,99291.75
2022-09-17T05:14:54.982Z,99292.15000000001
2022-09-17T05:15:30.397Z,99292.15000000001
2022-09-17T05:16:26.837Z,99292.98999999999
2022-09-17T05:20:30.360Z,99292.98999999999
2022-09-17T05:21:16.104Z,99303.24
2022-09-17T05:25:31.475Z,99303.24
2022-09-17T05:25:38.716Z,99303.24
2022-09-17T05:29:05.437Z,99302.09
2022-09-17T05:30:32.207Z,99302.09
2022-09-17T05:33:02.159Z,99303.58
2022-09-17T05:35:32.385Z,99303.58
2022-09-17T05:38:35.068Z,99303.4
2022-09-17T05:40:31.771Z,99303.4
2022-09-17T05:45:32.204Z,99294.29000000001
2022-09-17T05:46:14.872Z,99285.08
2022-09-17T05:50:31.283Z,99285.08
2022-09-17T05:52:13.912Z,99285.56999999999
2022-09-17T05:55:30.731Z,99285.56999999999
2022-09-17T05:56:08.730Z,99284.93999999999
2022-09-17T06:00:30.287Z,99284.93999999999
2022-09-17T06:03:38.627Z,99284.28
2022-09-17T06:05:13.850Z,99284.28
2022-09-17T06:05:30.788Z,99284.28
2022-09-17T06:10:07.341Z,99274.67
2022-09-17T06:10:30.531Z,99274.67
2022-09-17T06:15:30.376Z,99268.08
2022-09-17T06:15:38.637Z,99268.08
2022-09-17T06:20:30.292Z,99252.68
2022-09-17T06:21:11.807Z,99251.79000000001
2022-09-17T06:24:36.635Z,99251.79000000001
2022-09-17T06:25:30.792Z,99251.79000000001
2022-09-17T06:30:30.326Z,99252.76
2022-09-17T06:34:45.400Z,99253.52
2022-09-17T06:35:30.231Z,99253.52
2022-09-17T06:40:30.387Z,99248.08
2022-09-17T06:44:20.740Z,99242.22
2022-09-17T06:45:30.561Z,99242.22
2022-09-17T06:46:15.994Z,99237.55
2022-09-17T06:50:30.363Z,99237.55
2022-09-17T06:50:42.606Z,99237.55
2022-09-17T06:55:30.612Z,99227.82999999999
2022-09-17T07:00:30.234Z,99228.14
2022-09-17T07:02:35.978Z,99245.39
2022-09-17T07:04:28.847Z,99245.39
2022-09-17T07:05:31.849Z,99245.39
2022-09-17T07:09:37.595Z,99253.12
2022-09-17T07:10:31.279Z,99253.12
2022-09-17T07:15:30.315Z,99258.81000000001
2022-09-17T07:20:30.454Z,99269.59000000001
2022-09-17T07:25:30.248Z,99273.69
2022-09-17T07:30:30.789Z,99275.23999999999
2022-09-17T07:35:30.346Z,99289.45
2022-09-17T07:40:30.415Z,99295.28
2022-09-17T07:43:22.437Z,99293.55
2022-09-17T07:45:30.246Z,99293.55
2022-09-17T07:49:49.943Z,99306.53
2022-09-17T07:50:32.397Z,99306.53
2022-09-17T07:55:30.606Z,99308.47
2022-09-17T08:00:30.682Z,99304.24
2022-09-17T08:04:09.829Z,99299.1
2022-09-17T08:05:31.440Z,99299.1
2022-09-17T08:10:30.483Z,99310.36
2022-09-17T08:15:30.308Z,99311.32
2022-09-17T08:18:38.411Z,99315.86
2022-09-17T08:20:30.199Z,99315.86
2022-09-17T08:23:34.057Z,99316.03
2022-09-17T08:25:30.339Z,99316.03
2022-09-17T08:30:31.418Z,99314.31
2022-09-17T08:35:30.167Z,99318.91
2022-09-17T08:40:30.572Z,99333.65
2022-09-17T08:43:58.551Z,99342.72
2022-09-17T08:45:30.265Z,99342.72
2022-09-17T08:47:12.818Z,99348.71
2022-09-17T08:50:32.061Z,99348.71
2022-09-17T08:50:41.558Z,99348.71
2022-09-17T08:55:36.445Z,99352.36
2022-09-17T09:00:38.100Z,99342.42
2022-09-17T09:05:35.828Z,99337.0
2022-09-17T09:07:30.320Z,99333.62
2022-09-17T09:10:36.952Z,99333.62
2022-09-17T09:15:37.233Z,99323.22
2022-09-17T09:20:39.034Z,99334.88
2022-09-17T09:25:36.046Z,99342.88
2022-09-17T09:26:01.956Z,99342.88
2022-09-17T09:30:42.217Z,99334.77
2022-09-17T09:33:48.025Z,99340.99
2022-09-17T09:35:32.595Z,99340.99
2022-09-17T09:35:50.655Z,99340.99
2022-09-17T09:40:36.568Z,99340.48
2022-09-17T09:44:41.731Z,99330.57
2022-09-17T09:45:14.412Z,99330.57
2022-09-17T09:45:43.814Z,99330.57
2022-09-17T09:50:11.395Z,99323.96
2022-09-17T09:51:02.229Z,99323.96
2022-09-17T09:54:30.343Z,99337.06
2022-09-17T09:55:47.421Z,99337.06
2022-09-17T09:58:34.742Z,99336.21
2022-09-17T10:00:34.685Z,99336.21
2022-09-17T10:00:42.609Z,99336.21
2022-09-17T10:05:30.200Z,99329.21
2022-09-17T10:08:39.507Z,99341.42
2022-09-17T10:10:18.699Z,99341.42
2022-09-17T10:10:29.999Z,99341.42
2022-09-17T10:15:25.756Z,99345.83
2022-09-17T10:15:29.809Z,99345.83
2022-09-17T10:20:30.348Z,99352.53
2022-09-17T10:25:27.568Z,99357.28
2022-09-17T10:25:32.623Z,99357.28
2022-09-17T10:30:31.063Z,99358.37
2022-09-17T10:33:56.590Z,99361.72
2022-09-17T10:35:30.558Z,99361.72
2022-09-17T10:40:31.486Z,99354.24
2022-09-17T10:40:39.139Z,99354.24
2022-09-17T10:45:31.533Z,99352.75
2022-09-17T10:46:38.531Z,99365.11
2022-09-17T10:49:53.025Z,99365.11
2022-09-17T10:50:31.975Z,99365.11
2022-09-17T10:52:59.615Z,99375.37
2022-09-17T10:54:58.779Z,99375.37
2022-09-17T10:55:32.656Z,99375.37
2022-09-17T11:00:38.690Z,99379.21
2022-09-17T11:05:39.189Z,99371.3
2022-09-17T11:06:37.494Z,99387.23
2022-09-17T11:08:40.967Z,99387.23
2022-09-17T11:10:36.776Z,99387.23
2022-09-17T11:11:26.668Z,99383.06
2022-09-17T11:12:43.793Z,99383.06
2022-09-17T11:15:39.572Z,99383.06
2022-09-17T11:16:36.266Z,99382.98999999999
2022-09-17T11:20:46.215Z,99382.98999999999
2022-09-17T11:25:33.879Z,99358.72
2022-09-17T11:25:43.707Z,99358.72
2022-09-17T11:30:35.062Z,99351.28
2022-09-17T11:35:34.518Z,99350.31999999999
2022-09-17T11:40:36.986Z,99354.35
2022-09-17T11:41:49.243Z,99340.97
2022-09-17T11:45:35.466Z,99340.97
2022-09-17T11:50:35.690Z,99329.96
2022-09-17T11:55:34.598Z,99330.89
2022-09-17T11:55:41.659Z,99330.89
2022-09-17T11:59:21.894Z,99332.93
2022-09-17T12:00:34.701Z,99332.93
2022-09-17T12:02:45.314Z,99329.69
2022-09-17T12:05:34.968Z,99329.69
2022-09-17T12:05:48.517Z,99329.69
2022-09-17T12:10:40.608Z,99335.36
2022-09-17T12:10:48.845Z,99335.36
2022-09-17T12:10:57.176Z,99335.36
2022-09-17T12:13:50.526Z,99337.94
2022-09-17T12:15:35.087Z,99337.94
2022-09-17T12:20:32.969Z,99331.81
2022-09-17T12:25:37.790Z,99329.85
2022-09-17T12:30:37.431Z,99341.22
2022-09-17T12:36:03.143Z,99339.17
2022-09-17T12:40:34.410Z,99349.3
2022-09-17T12:45:16.051Z,99353.91
2022-09-17T12:45:40.375Z,99353.91
2022-09-17T12:50:39.781Z,99360.75
2022-09-17T12:51:09.603Z,99364.53
2022-09-17T12:55:40.337Z,99364.53
2022-09-17T12:59:39.108Z,99348.72
2022-09-17T13:00:34.203Z,99348.72
2022-09-17T13:05:49.418Z,99337.39
2022-09-17T13:06:09.660Z,99337.31
2022-09-17T13:06:21.288Z,99337.31
2022-09-17T13:10:41.108Z,99337.31
2022-09-17T13:14:16.363Z,99337.79
2022-09-17T13:15:46.047Z,99337.79
2022-09-17T13:18:12.404Z,99343.40999999999
2022-09-17T13:20:36.944Z,99343.40999999999
2022-09-17T13:22:02.939Z,99347.85
2022-09-17T13:25:30.244Z,99347.85
2022-09-17T13:30:49.911Z,99348.38
2022-09-17T13:35:50.008Z,99340.78
2022-09-17T13:40:32.023Z,99334.07999999999
2022-09-17T13:42:05.157Z,99338.64
2022-09-17T13:43:28.876Z,99338.64
2022-09-17T13:45:31.102Z,99338.64
2022-09-17T13:50:33.103Z,99335.72
2022-09-17T13:55:34.266Z,99341.09
2022-09-17T13:57:12.978Z,99337.66
2022-09-17T13:59:07.717Z,99337.66
2022-09-17T14:00:48.912Z,99337.66
2022-09-17T14:04:31.934Z,99337.15999999999
2022-09-17T14:05:34.671Z,99337.15999999999
2022-09-17T14:10:40.825Z,99328.5
2022-09-17T14:15:31.349Z,99324.19
2022-09-17T14:20:33.202Z,99318.58
2022-09-17T14:30:00.663Z,99314.83
2022-09-17T14:30:31.931Z,99314.83
2022-09-17T14:32:19.834Z,99319.41
2022-09-17T14:34:49.024Z,99319.41
2022-09-17T14:35:34.440Z,99319.41
2022-09-17T14:40:33.319Z,99321.84999999999
2022-09-17T14:44:58.370Z,99323.29999999999
2022-09-17T14:45:32.751Z,99323.29999999999
2022-09-17T14:46:28.798Z,99325.51
2022-09-17T14:48:11.402Z,99325.51
2022-09-17T14:50:30.484Z,99325.51
2022-09-17T14:55:31.128Z,99321.32
2022-09-17T14:59:51.972Z,99325.59
2022-09-17T15:00:32.963Z,99325.59
2022-09-17T15:03:20.680Z,99331.31
2022-09-17T15:05:32.822Z,99331.31
2022-09-17T15:09:21.654Z,99326.17
2022-09-17T15:10:30.591Z,99326.17
2022-09-17T15:11:39.569Z,99330.05
2022-09-17T15:15:30.015Z,99330.05
2022-09-17T15:20:31.083Z,99323.58
2022-09-17T15:23:57.366Z,99325.3
2022-09-17T15:25:31.348Z,99325.3
2022-09-17T15:30:30.196Z,99321.36
2022-09-17T15:35:31.558Z,99315.71
2022-09-17T15:40:32.588Z,99322.79999999999
2022-09-17T15:44:30.398Z,99310.77
2022-09-17T15:45:36.183Z,99310.77
2022-09-17T15:50:16.261Z,99323.05
2022-09-17T15:50:31.825Z,99323.05
2022-09-17T15:55:32.482Z,99334.02
2022-09-17T16:00:30.704Z,99327.06
2022-09-17T16:02:56.964Z,99325.11
2022-09-17T16:05:43.117Z,99325.11
2022-09-17T16:08:22.940Z,99340.14
2022-09-17T16:10:29.908Z,99340.14
2022-09-17T16:15:29.960Z,99346.3
2022-09-17T16:20:30.027Z,99336.79
2022-09-17T16:25:30.140Z,99343.02
2022-09-17T16:30:30.092Z,99344.86
2022-09-17T16:35:29.969Z,99342.81
2022-09-17T16:40:30.184Z,99345.58
2022-09-17T16:42:23.624Z,99332.34999999999
2022-09-17T16:45:30.625Z,99332.34999999999
2022-09-17T16:50:30.121Z,99328.68
2022-09-17T16:55:30.071Z,99322.5
2022-09-17T17:00:29.981Z,99336.73999999999
2022-09-17T17:05:30.748Z,99343.73000000001
2022-09-17T17:10:30.074Z,99343.43000000001
2022-09-17T17:13:19.038Z,99339.14
2022-09-17T17:14:48.971Z,99339.14
2022-09-17T17:15:29.999Z,99339.14
2022-09-17T17:20:31.046Z,99343.59
2022-09-17T17:25:31.232Z,99349.43
2022-09-17T17:28:56.126Z,99351.9
2022-09-17T17:30:34.713Z,99351.9
2022-09-17T17:35:30.548Z,99342.72
2022-09-17T17:40:30.131Z,99344.17
2022-09-17T17:45:29.850Z,99345.28
2022-09-17T17:50:31.076Z,99332.75
2022-09-17T17:55:30.043Z,99335.28
2022-09-17T18:00:29.907Z,99334.65
2022-09-17T18:05:29.946Z,99340.34
2022-09-17T18:10:29.878Z,99341.54999999999
2022-09-17T18:15:31.934Z,99341.8
2022-09-17T18:20:29.830Z,99346.92
2022-09-17T18:25:30.082Z,99346.23
2022-09-17T18:30:31.264Z,99347.64
2022-09-17T18:35:34.308Z,99352.29000000001
2022-09-17T18:40:30.052Z,99352.39
2022-09-17T18:44:05.246Z,99359.2
2022-09-17T18:45:31.023Z,99359.2
2022-09-17T18:50:29.935Z,99345.78
2022-09-17T18:55:30.111Z,99348.14
2022-09-17T18:58:56.107Z,99346.53
2022-09-17T19:00:29.981Z,99346.53
2022-09-17T19:05:30.012Z,99337.03
2022-09-17T19:10:30.327Z,99332.28
2022-09-17T19:15:29.935Z,99335.33
2022-09-17T19:20:34.717Z,99331.98
2022-09-17T19:22:32.633Z,99320.23000000001
2022-09-17T19:25:30.168Z,99320.23000000001
2022-09-17T19:28:22.080Z,99317.52
2022-09-17T19:30:31.302Z,99317.52
2022-09-17T19:35:29.945Z,99313.61
2022-09-17T19:40:29.870Z,99312.47
2022-09-17T19:45:30.086Z,99310.70999999999
2022-09-17T19:50:30.788Z,99306.08
2022-09-17T19:51:13.426Z,99303.45
2022-09-17T19:55:29.740Z,99303.45
2022-09-17T19:58:49.392Z,99301.42
2022-09-17T20:00:30.042Z,99301.42
2022-09-17T20:01:13.006Z,99297.79999999999
2022-09-17T20:05:30.238Z,99297.79999999999
2022-09-17T20:10:32.782Z,99297.27
2022-09-17T20:13:37.633Z,99304.81
2022-09-17T20:15:33.479Z,99304.81
2022-09-17T20:20:29.898Z,99305.36
2022-09-17T20:23:15.372Z,99304.16
2022-09-17T20:25:29.965Z,99304.16
2022-09-17T20:25:38.231Z,99304.16
2022-09-17T20:30:02.202Z,99302.44
2022-09-17T20:30:29.823Z,99302.44
2022-09-17T20:35:29.757Z,99311.36
2022-09-17T20:39:13.219Z,99307.73000000001
2022-09-17T20:40:29.976Z,99307.73000000001
2022-09-17T20:45:29.710Z,99305.86
2022-09-17T20:50:29.878Z,99304.97
2022-09-17T20:51:39.224Z,99310.13
2022-09-17T20:55:29.743Z,99310.13
2022-09-17T20:59:46.113Z,99303.02
2022-09-17T21:00:30.087Z,99303.02
2022-09-17T21:05:29.901Z,99301.14
2022-09-17T21:08:27.654Z,99299.3
2022-09-17T21:10:29.710Z,99299.3
2022-09-17T21:15:29.946Z,99295.12
2022-09-17T21:20:29.830Z,99301.26000000001
2022-09-17T21:24:27.157Z,99301.03
2022-09-17T21:25:29.792Z,99301.03
2022-09-17T21:33:33.155Z,99299.33
2022-09-17T21:38:33.234Z,99298.51999999999
2022-09-17T21:43:33.802Z,99307.15
2022-09-17T21:48:35.224Z,99309.02
2022-09-17T21:53:33.850Z,99303.54999999999
2022-09-17T21:58:33.957Z,99299.27
2022-09-17T22:03:32.914Z,99301.95
2022-09-17T22:08:33.805Z,99307.08
2022-09-17T22:13:32.866Z,99309.02
2022-09-17T22:18:34.445Z,99308.26
2022-09-17T22:23:32.995Z,99307.08
2022-09-17T22:28:34.958Z,99302.88
2022-09-17T22:33:02.936Z,99294.08
2022-09-17T22:33:35.344Z,99294.08
2022-09-17T22:38:33.242Z,99292.14
2022-09-17T22:43:33.393Z,99286.77
2022-09-17T22:48:32.639Z,99280.40999999999
2022-09-17T22:53:32.883Z,99278.09
2022-09-17T22:58:32.786Z,99275.42
2022-09-17T23:03:33.464Z,99268.0
2022-09-17T23:08:34.127Z,99267.74
2022-09-17T23:13:33.668Z,99267.11
2022-09-17T23:18:33.996Z,99272.26000000001
2022-09-17T23:23:34.472Z,99273.91
2022-09-17T23:28:34.367Z,99263.01
2022-09-17T23:33:33.118Z,99262.59
2022-09-17T23:38:33.993Z,99262.14
2022-09-17T23:43:32.747Z,99257.5
2022-09-17T23:48:32.656Z,99256.84
2022-09-17T23:53:34.279Z,99254.26999999999
2022-09-17T23:58:33.388Z,99255.88
